createdAt,value
2023-01-17T00:00:33.025Z,2.27
2023-01-17T00:02:31.831Z,2.27
2023-01-17T00:04:47.711Z,2.23
2023-01-17T00:07:03.544Z,2.23
2023-01-17T00:09:20.552Z,2.22
2023-01-17T00:11:18.821Z,2.22
2023-01-17T00:13:17.615Z,2.23
2023-01-17T00:15:16.969Z,2.32
2023-01-17T00:17:15.414Z,2.31
2023-01-17T00:19:31.473Z,2.35
2023-01-17T00:21:46.995Z,2.45
2023-01-17T00:24:03.430Z,2.46
2023-01-17T00:26:06.759Z,2.46
2023-01-17T00:28:04.640Z,2.49
2023-01-17T00:30:01.824Z,2.47
2023-01-17T00:31:59.011Z,2.53
2023-01-17T00:33:55.915Z,2.49
2023-01-17T00:35:53.851Z,2.44
2023-01-17T00:38:01.336Z,2.49
2023-01-17T00:39:58.449Z,2.48
2023-01-17T00:41:56.780Z,2.46
2023-01-17T00:44:12.223Z,2.43
2023-01-17T00:46:28.404Z,2.37
2023-01-17T00:48:43.873Z,2.36
2023-01-17T00:50:59.225Z,2.31
2023-01-17T00:53:14.897Z,2.26
2023-01-17T00:55:30.662Z,2.27
2023-01-17T00:57:48.154Z,2.25
2023-01-17T01:00:04.111Z,2.23
2023-01-17T01:02:19.635Z,2.22
2023-01-17T01:04:35.633Z,2.19
2023-01-17T01:06:51.015Z,2.14
2023-01-17T01:09:07.120Z,2.13
2023-01-17T01:11:27.675Z,2.17
2023-01-17T01:13:46.139Z,2.18
2023-01-17T01:16:01.688Z,2.17
2023-01-17T01:18:17.471Z,2.20
2023-01-17T01:20:33.420Z,2.20
2023-01-17T01:22:49.417Z,2.20
2023-01-17T01:25:04.872Z,2.20
2023-01-17T01:27:20.830Z,2.16
2023-01-17T01:29:38.008Z,2.21
2023-01-17T01:31:53.987Z,2.20
2023-01-17T01:33:53.104Z,2.18
2023-01-17T01:35:53.802Z,2.21
2023-01-17T01:37:52.444Z,2.20
2023-01-17T01:39:50.609Z,2.18
2023-01-17T01:41:48.708Z,2.20
2023-01-17T01:43:49.248Z,2.15
2023-01-17T01:45:53.770Z,2.16
2023-01-17T01:47:55.111Z,2.17
2023-01-17T01:49:53.377Z,2.11
2023-01-17T01:51:55.832Z,2.11
2023-01-17T01:54:03.616Z,2.17
2023-01-17T01:56:02.583Z,2.17
2023-01-17T01:58:05.459Z,2.18
2023-01-17T02:00:08.470Z,2.20
2023-01-17T02:02:11.273Z,2.15
2023-01-17T02:04:11.133Z,2.17
2023-01-17T02:06:20.980Z,2.19
2023-01-17T02:08:24.072Z,2.19
2023-01-17T02:10:22.689Z,2.19
2023-01-17T02:12:22.478Z,2.19
2023-01-17T02:14:31.945Z,2.19
2023-01-17T02:16:52.770Z,2.19
2023-01-17T02:19:10.226Z,2.14
2023-01-17T02:21:22.767Z,2.22
2023-01-17T02:23:47.634Z,2.29
2023-01-17T02:26:19.076Z,2.29
2023-01-17T02:28:39.536Z,2.27
2023-01-17T02:30:44.448Z,2.30
2023-01-17T02:32:57.504Z,2.25
2023-01-17T02:35:12.007Z,2.19
2023-01-17T02:37:21.574Z,2.26
2023-01-17T02:39:32.525Z,2.30
2023-01-17T02:41:39.449Z,2.32
2023-01-17T02:43:44.123Z,2.37
2023-01-17T02:45:46.419Z,2.35
2023-01-17T02:47:45.892Z,2.45
2023-01-17T02:50:12.368Z,2.55
2023-01-17T02:52:28.300Z,2.53
2023-01-17T02:54:44.156Z,2.53
2023-01-17T02:56:53.353Z,2.54
2023-01-17T02:59:06.086Z,2.58
2023-01-17T03:01:20.724Z,2.56
2023-01-17T03:03:25.606Z,2.52
2023-01-17T03:05:30.519Z,2.51
2023-01-17T03:07:31.387Z,2.51
2023-01-17T03:09:31.360Z,2.49
2023-01-17T03:11:29.590Z,2.52
2023-01-17T03:13:28.009Z,2.52
2023-01-17T03:15:26.234Z,2.48
2023-01-17T03:17:29.862Z,2.49
2023-01-17T03:19:28.069Z,2.47
2023-01-17T03:21:26.315Z,2.41
2023-01-17T03:23:24.459Z,2.44
2023-01-17T03:25:22.612Z,2.46
2023-01-17T03:27:20.797Z,2.44
2023-01-17T03:29:19.438Z,2.47
2023-01-17T03:31:19.855Z,2.55
2023-01-17T03:33:19.482Z,2.57
2023-01-17T03:35:18.122Z,2.61
2023-01-17T03:37:16.323Z,2.62
2023-01-17T03:39:14.556Z,2.62
2023-01-17T03:41:12.960Z,2.64
2023-01-17T03:43:11.852Z,2.68
2023-01-17T03:45:10.993Z,2.68
2023-01-17T03:47:12.238Z,2.75
2023-01-17T03:49:12.025Z,2.73
2023-01-17T03:51:10.211Z,2.75
2023-01-17T03:53:08.462Z,2.79
2023-01-17T03:55:08.307Z,2.82
2023-01-17T03:57:06.539Z,2.85
2023-01-17T03:59:04.701Z,2.85
2023-01-17T04:01:03.123Z,2.86
2023-01-17T04:03:01.442Z,2.84
2023-01-17T04:05:01.320Z,2.86
2023-01-17T04:06:59.555Z,2.88
2023-01-17T04:08:57.787Z,2.88
2023-01-17T04:10:56.099Z,2.86
2023-01-17T04:12:54.230Z,2.89
2023-01-17T04:14:52.545Z,2.91
2023-01-17T04:16:50.939Z,2.91
2023-01-17T04:18:49.231Z,2.96
2023-01-17T04:20:49.150Z,2.96
2023-01-17T04:22:47.249Z,2.97
2023-01-17T04:24:45.539Z,2.99
2023-01-17T04:26:43.852Z,2.97
2023-01-17T04:28:42.132Z,3.02
2023-01-17T04:30:40.597Z,3.04
2023-01-17T04:32:38.787Z,3.06
2023-01-17T04:34:37.001Z,3.04
2023-01-17T04:36:36.584Z,3.10
2023-01-17T04:38:35.198Z,3.09
2023-01-17T04:40:33.408Z,3.10
2023-01-17T04:42:31.986Z,3.13
2023-01-17T04:44:30.205Z,3.15
2023-01-17T04:46:28.458Z,3.19
2023-01-17T04:48:27.553Z,3.24
2023-01-17T04:50:25.775Z,3.22
2023-01-17T04:52:25.436Z,3.26
2023-01-17T04:54:23.518Z,3.27
2023-01-17T04:56:21.904Z,3.30
2023-01-17T04:58:20.089Z,3.33
2023-01-17T05:00:19.421Z,3.27
2023-01-17T05:02:17.548Z,3.26
2023-01-17T05:04:15.675Z,3.27
2023-01-17T05:06:13.900Z,3.27
2023-01-17T05:08:13.461Z,3.25
2023-01-17T05:10:12.360Z,3.24
2023-01-17T05:12:10.926Z,3.23
2023-01-17T05:14:09.251Z,3.23
2023-01-17T05:16:07.925Z,3.22
2023-01-17T05:18:08.827Z,3.27
2023-01-17T05:20:08.938Z,3.29
2023-01-17T05:22:15.263Z,3.32
2023-01-17T05:24:15.042Z,3.38
2023-01-17T05:26:13.278Z,3.37
2023-01-17T05:28:13.106Z,3.56
2023-01-17T05:30:12.856Z,3.58
2023-01-17T05:32:11.088Z,3.50
2023-01-17T05:34:09.411Z,3.50
2023-01-17T05:36:08.302Z,3.54
2023-01-17T05:38:06.736Z,3.61
2023-01-17T05:40:09.679Z,3.60
2023-01-17T05:42:07.830Z,3.57
2023-01-17T05:44:06.525Z,3.60
2023-01-17T05:46:04.786Z,3.61
2023-01-17T05:48:03.628Z,3.67
2023-01-17T05:50:01.930Z,3.69
2023-01-17T05:52:00.218Z,3.73
2023-01-17T05:53:58.405Z,3.75
2023-01-17T05:55:58.032Z,3.71
2023-01-17T05:57:56.565Z,3.78
2023-01-17T05:59:54.920Z,3.77
2023-01-17T06:01:54.430Z,3.79
2023-01-17T06:03:52.622Z,3.82
2023-01-17T06:05:51.167Z,3.90
2023-01-17T06:07:50.301Z,3.93
2023-01-17T06:09:48.452Z,4.04
2023-01-17T06:11:48.079Z,4.15
2023-01-17T06:13:46.266Z,4.57
2023-01-17T06:15:44.737Z,4.93
2023-01-17T06:17:43.121Z,5.37
2023-01-17T06:19:41.365Z,5.85
2023-01-17T06:21:39.837Z,6.48
2023-01-17T06:23:38.034Z,7.00
2023-01-17T06:25:38.541Z,6.74
2023-01-17T06:27:38.091Z,6.41
2023-01-17T06:29:36.308Z,6.05
2023-01-17T06:31:34.680Z,5.62
2023-01-17T06:33:33.006Z,5.54
2023-01-17T06:35:31.179Z,5.20
2023-01-17T06:37:29.463Z,4.98
2023-01-17T06:39:27.768Z,4.95
2023-01-17T06:41:26.749Z,4.97
2023-01-17T06:43:26.574Z,4.76
2023-01-17T06:45:24.659Z,4.80
2023-01-17T06:47:22.905Z,4.89
2023-01-17T06:49:21.134Z,4.99
2023-01-17T06:51:19.294Z,4.97
2023-01-17T06:53:17.500Z,4.98
2023-01-17T06:55:15.634Z,4.99
2023-01-17T06:57:13.925Z,4.93
2023-01-17T06:59:13.448Z,4.72
2023-01-17T07:01:14.182Z,4.65
2023-01-17T07:03:20.395Z,4.63
2023-01-17T07:05:18.749Z,4.64
2023-01-17T07:07:17.116Z,4.68
2023-01-17T07:09:16.050Z,4.87
2023-01-17T07:11:14.586Z,5.05
2023-01-17T07:13:12.934Z,5.05
2023-01-17T07:15:13.873Z,5.13
2023-01-17T07:17:12.113Z,5.29
2023-01-17T07:19:10.434Z,5.59
2023-01-17T07:21:14.398Z,5.62
2023-01-17T07:23:12.612Z,5.43
2023-01-17T07:25:11.227Z,5.53
2023-01-17T07:27:09.650Z,5.66
2023-01-17T07:29:07.990Z,5.78
2023-01-17T07:31:09.113Z,5.87
2023-01-17T07:33:07.385Z,6.03
2023-01-17T07:35:06.470Z,6.21
2023-01-17T07:37:05.268Z,6.46
2023-01-17T07:39:05.466Z,6.61
2023-01-17T07:41:04.808Z,6.57
2023-01-17T07:43:03.467Z,6.62
2023-01-17T07:45:02.813Z,6.85
2023-01-17T07:47:02.568Z,7.12
2023-01-17T07:49:00.923Z,7.35
2023-01-17T07:50:59.766Z,7.37
2023-01-17T07:52:58.039Z,7.54
2023-01-17T07:54:56.130Z,7.81
2023-01-17T07:56:54.338Z,8.11
2023-01-17T07:58:52.571Z,8.21
2023-01-17T08:00:50.889Z,8.31
2023-01-17T08:02:50.863Z,8.23
2023-01-17T08:04:50.096Z,8.30
2023-01-17T08:06:50.808Z,8.36
2023-01-17T08:08:49.229Z,8.28
2023-01-17T08:10:47.589Z,8.21
2023-01-17T08:12:46.866Z,8.19
2023-01-17T08:14:45.449Z,8.14
2023-01-17T08:16:43.831Z,8.21
2023-01-17T08:18:43.556Z,8.57
2023-01-17T08:20:42.132Z,8.75
2023-01-17T08:22:40.401Z,8.92
2023-01-17T08:24:38.638Z,9.04
2023-01-17T08:26:36.773Z,9.14
2023-01-17T08:28:35.072Z,9.42
2023-01-17T08:30:33.653Z,9.81
2023-01-17T08:32:31.792Z,10.45
2023-01-17T08:34:34.233Z,10.90
2023-01-17T08:36:32.525Z,11.50
2023-01-17T08:38:30.779Z,12.74
2023-01-17T08:40:29.493Z,13.57
2023-01-17T08:42:28.045Z,14.13
2023-01-17T08:44:26.414Z,14.98
2023-01-17T08:46:25.098Z,15.66
2023-01-17T08:48:23.743Z,15.53
2023-01-17T08:50:25.053Z,15.78
2023-01-17T08:52:23.202Z,16.22
2023-01-17T08:54:23.015Z,15.97
2023-01-17T08:56:21.265Z,15.82
2023-01-17T08:58:19.523Z,15.72
2023-01-17T09:00:19.017Z,15.13
2023-01-17T09:02:18.498Z,15.04
2023-01-17T09:04:17.217Z,15.18
2023-01-17T09:06:18.279Z,15.07
2023-01-17T09:08:16.645Z,15.25
2023-01-17T09:10:15.283Z,15.75
2023-01-17T09:12:14.058Z,15.94
2023-01-17T09:14:13.602Z,15.96
2023-01-17T09:16:12.007Z,16.55
2023-01-17T09:18:10.371Z,16.84
2023-01-17T09:20:10.047Z,17.17
2023-01-17T09:22:10.202Z,16.98
2023-01-17T09:24:08.734Z,16.89
2023-01-17T09:26:07.725Z,17.43
2023-01-17T09:28:06.363Z,17.81
2023-01-17T09:30:05.606Z,17.78
2023-01-17T09:32:03.862Z,17.39
2023-01-17T09:34:02.373Z,17.52
2023-01-17T09:36:05.711Z,18.02
2023-01-17T09:38:05.815Z,18.07
2023-01-17T09:40:05.599Z,17.90
2023-01-17T09:42:18.683Z,17.60
2023-01-17T09:44:27.098Z,17.04
2023-01-17T09:46:30.138Z,16.39
2023-01-17T09:48:36.521Z,16.01
2023-01-17T09:50:41.580Z,15.70
2023-01-17T09:52:40.079Z,15.00
2023-01-17T09:54:42.369Z,14.79
2023-01-17T09:56:49.244Z,14.65
2023-01-17T09:58:56.886Z,14.59
2023-01-17T10:01:03.594Z,14.48
2023-01-17T10:03:30.894Z,13.98
2023-01-17T10:05:50.725Z,14.11
2023-01-17T10:08:04.634Z,14.23
2023-01-17T10:10:22.161Z,14.35
2023-01-17T10:12:27.200Z,14.36
2023-01-17T10:14:40.036Z,14.53
2023-01-17T10:16:47.579Z,14.27
2023-01-17T10:19:15.839Z,13.97
2023-01-17T10:21:18.643Z,13.69
2023-01-17T10:23:43.369Z,13.44
2023-01-17T10:25:48.960Z,13.49
2023-01-17T10:27:52.597Z,13.34
2023-01-17T10:29:52.049Z,13.18
2023-01-17T10:31:57.001Z,13.22
2023-01-17T10:33:57.663Z,13.29
2023-01-17T10:35:59.041Z,13.36
2023-01-17T10:37:59.625Z,13.46
2023-01-17T10:40:04.022Z,13.37
2023-01-17T10:42:14.277Z,13.20
2023-01-17T10:44:19.880Z,13.13
2023-01-17T10:46:24.300Z,13.10
2023-01-17T10:48:36.149Z,12.98
2023-01-17T10:50:54.213Z,12.85
2023-01-17T10:52:59.779Z,12.64
2023-01-17T10:55:09.947Z,12.64
2023-01-17T10:57:16.711Z,12.60
2023-01-17T10:59:30.689Z,12.63
2023-01-17T11:01:29.289Z,12.71
2023-01-17T11:03:28.837Z,12.61
2023-01-17T11:05:29.370Z,12.55
2023-01-17T11:07:30.090Z,12.57
2023-01-17T11:09:41.310Z,12.44
2023-01-17T11:11:48.128Z,12.58
2023-01-17T11:13:50.487Z,12.66
2023-01-17T11:15:51.604Z,12.67
2023-01-17T11:17:54.198Z,12.63
2023-01-17T11:19:53.288Z,12.76
2023-01-17T11:21:59.342Z,12.78
2023-01-17T11:23:59.927Z,12.79
2023-01-17T11:26:02.929Z,12.86
2023-01-17T11:28:04.565Z,12.91
2023-01-17T11:30:17.424Z,12.88
2023-01-17T11:32:32.066Z,12.96
2023-01-17T11:34:32.369Z,12.97
2023-01-17T11:36:34.068Z,13.05
2023-01-17T11:38:33.281Z,13.11
2023-01-17T11:40:37.624Z,13.18
2023-01-17T11:42:38.499Z,13.05
2023-01-17T11:44:36.888Z,13.18
2023-01-17T11:46:36.894Z,13.17
2023-01-17T11:48:37.745Z,13.19
2023-01-17T11:50:38.939Z,13.19
2023-01-17T11:52:39.210Z,13.32
2023-01-17T11:54:40.781Z,13.39
2023-01-17T11:56:41.052Z,13.21
2023-01-17T11:58:43.385Z,13.27
2023-01-17T12:00:47.812Z,13.42
2023-01-17T12:03:21.440Z,13.32
2023-01-17T12:05:35.697Z,13.48
2023-01-17T12:07:42.538Z,13.51
2023-01-17T12:09:47.379Z,13.51
2023-01-17T12:12:13.628Z,13.45
2023-01-17T12:14:24.325Z,13.58
2023-01-17T12:16:34.256Z,13.70
2023-01-17T12:18:45.770Z,13.62
2023-01-17T12:20:55.111Z,13.64
2023-01-17T12:23:14.569Z,13.71
2023-01-17T12:25:28.918Z,13.73
2023-01-17T12:27:36.912Z,13.61
2023-01-17T12:29:45.168Z,13.49
2023-01-17T12:31:55.515Z,13.44
2023-01-17T12:33:59.739Z,13.45
2023-01-17T12:36:04.323Z,13.54
2023-01-17T12:38:08.040Z,13.52
2023-01-17T12:40:18.448Z,13.52
2023-01-17T12:42:22.186Z,13.49
2023-01-17T12:44:31.193Z,13.41
2023-01-17T12:46:38.775Z,13.37
2023-01-17T12:48:39.590Z,13.49
2023-01-17T12:50:42.899Z,13.54
2023-01-17T12:52:54.627Z,13.77
2023-01-17T12:54:59.087Z,13.63
2023-01-17T12:57:03.628Z,13.57
2023-01-17T12:59:23.385Z,13.63
2023-01-17T13:01:29.720Z,13.52
2023-01-17T13:03:36.921Z,13.55
2023-01-17T13:05:39.032Z,13.60
2023-01-17T13:07:46.771Z,13.58
2023-01-17T13:09:54.659Z,13.49
2023-01-17T13:11:59.015Z,13.52
2023-01-17T13:14:00.142Z,13.50
2023-01-17T13:16:03.944Z,13.43
2023-01-17T13:18:09.730Z,13.39
2023-01-17T13:20:18.031Z,13.37
2023-01-17T13:22:21.822Z,13.43
2023-01-17T13:24:27.478Z,13.45
2023-01-17T13:26:39.328Z,13.43
2023-01-17T13:28:50.342Z,13.38
2023-01-17T13:31:03.949Z,13.38
2023-01-17T13:33:43.292Z,13.50
2023-01-17T13:35:54.905Z,13.43
2023-01-17T13:38:22.932Z,13.31
2023-01-17T13:40:35.406Z,13.26
2023-01-17T13:42:49.720Z,13.28
2023-01-17T13:44:48.600Z,13.23
2023-01-17T13:46:58.216Z,13.26
2023-01-17T13:49:23.605Z,13.02
2023-01-17T13:52:03.580Z,12.93
2023-01-17T13:54:03.092Z,12.94
2023-01-17T13:56:12.447Z,12.88
2023-01-17T13:58:30.457Z,12.92
2023-01-17T14:00:56.510Z,12.93
2023-01-17T14:02:55.746Z,12.94
2023-01-17T14:05:15.291Z,13.02
2023-01-17T14:07:27.490Z,13.03
2023-01-17T14:09:42.328Z,13.03
2023-01-17T14:12:01.491Z,13.12
2023-01-17T14:14:38.232Z,13.27
2023-01-17T14:16:37.112Z,13.30
2023-01-17T14:18:41.282Z,13.27
2023-01-17T14:20:53.250Z,13.20
2023-01-17T14:22:58.994Z,13.13
2023-01-17T14:25:10.077Z,12.98
2023-01-17T14:27:20.811Z,12.85
2023-01-17T14:29:59.267Z,12.91
2023-01-17T14:32:06.193Z,13.01
2023-01-17T14:34:14.208Z,13.06
2023-01-17T14:36:22.335Z,13.08
2023-01-17T14:38:24.075Z,13.00
2023-01-17T14:40:26.569Z,13.04
2023-01-17T14:42:30.448Z,13.03
2023-01-17T14:44:33.417Z,13.03
2023-01-17T14:46:34.339Z,12.95
2023-01-17T14:48:33.563Z,13.08
2023-01-17T14:50:37.900Z,12.97
2023-01-17T14:52:36.612Z,12.83
2023-01-17T14:54:37.101Z,12.67
2023-01-17T14:56:35.768Z,12.58
2023-01-17T14:58:36.536Z,12.58
2023-01-17T15:00:41.062Z,12.52
2023-01-17T15:02:44.514Z,12.52
2023-01-17T15:04:44.277Z,12.47
2023-01-17T15:06:43.522Z,12.52
2023-01-17T15:08:42.227Z,12.63
2023-01-17T15:10:51.647Z,12.89
2023-01-17T15:12:52.592Z,12.78
2023-01-17T15:14:52.054Z,12.55
2023-01-17T15:16:52.177Z,12.55
2023-01-17T15:18:53.346Z,12.57
2023-01-17T15:21:05.889Z,12.56
2023-01-17T15:23:04.913Z,12.62
2023-01-17T15:25:07.678Z,12.63
2023-01-17T15:27:07.588Z,12.56
2023-01-17T15:29:08.640Z,12.47
2023-01-17T15:31:14.832Z,12.26
2023-01-17T15:33:20.960Z,12.17
2023-01-17T15:35:22.601Z,12.16
2023-01-17T15:37:30.139Z,12.15
2023-01-17T15:39:31.234Z,12.05
2023-01-17T15:41:33.739Z,11.90
2023-01-17T15:43:36.150Z,11.92
2023-01-17T15:45:36.187Z,11.85
2023-01-17T15:47:38.239Z,11.69
2023-01-17T15:49:36.755Z,11.62
2023-01-17T15:51:41.813Z,11.70
2023-01-17T15:53:42.891Z,11.68
2023-01-17T15:55:41.829Z,11.66
2023-01-17T15:57:41.332Z,11.73
2023-01-17T15:59:48.703Z,11.86
2023-01-17T16:01:55.120Z,11.85
2023-01-17T16:03:56.042Z,11.86
2023-01-17T16:05:57.870Z,11.83
2023-01-17T16:08:18.729Z,11.84
2023-01-17T16:10:19.308Z,11.95
2023-01-17T16:12:18.088Z,11.86
2023-01-17T16:14:19.215Z,11.74
2023-01-17T16:16:24.196Z,11.71
2023-01-17T16:18:28.181Z,11.60
2023-01-17T16:20:32.150Z,11.58
2023-01-17T16:22:30.711Z,11.64
2023-01-17T16:24:31.611Z,11.47
2023-01-17T16:26:30.554Z,11.27
2023-01-17T16:28:29.513Z,11.08
2023-01-17T16:30:29.383Z,10.92
2023-01-17T16:32:28.923Z,10.79
2023-01-17T16:34:28.399Z,10.66
2023-01-17T16:36:27.167Z,10.57
2023-01-17T16:38:25.875Z,10.53
2023-01-17T16:40:29.153Z,10.43
2023-01-17T16:42:28.627Z,10.39
2023-01-17T16:44:27.429Z,10.30
2023-01-17T16:46:26.868Z,10.24
2023-01-17T16:48:25.848Z,10.16
2023-01-17T16:50:26.676Z,10.12
2023-01-17T16:52:25.674Z,10.03
2023-01-17T16:54:24.535Z,9.94
2023-01-17T16:56:24.851Z,9.85
2023-01-17T16:58:24.199Z,9.84
2023-01-17T17:00:24.124Z,9.77
2023-01-17T17:02:23.283Z,9.71
2023-01-17T17:04:22.610Z,9.66
2023-01-17T17:06:21.662Z,9.59
2023-01-17T17:08:20.493Z,9.57
2023-01-17T17:10:21.015Z,9.69
2023-01-17T17:12:21.254Z,9.68
2023-01-17T17:14:20.150Z,9.72
2023-01-17T17:16:20.737Z,9.82
2023-01-17T17:18:19.802Z,9.85
2023-01-17T17:20:18.923Z,9.81
2023-01-17T17:22:17.572Z,9.72
2023-01-17T17:24:17.732Z,9.95
2023-01-17T17:26:16.643Z,9.92
2023-01-17T17:28:17.080Z,9.84
2023-01-17T17:30:16.678Z,9.77
2023-01-17T17:32:14.977Z,9.65
2023-01-17T17:34:15.019Z,9.61
2023-01-17T17:36:13.370Z,9.54
2023-01-17T17:38:11.861Z,9.65
2023-01-17T17:40:14.228Z,9.62
2023-01-17T17:42:12.598Z,9.56
2023-01-17T17:44:12.562Z,9.56
2023-01-17T17:46:11.393Z,9.58
2023-01-17T17:48:09.476Z,9.53
2023-01-17T17:50:10.246Z,9.43
2023-01-17T17:52:09.229Z,9.36
2023-01-17T17:54:09.016Z,9.24
2023-01-17T17:56:07.941Z,9.25
2023-01-17T17:58:06.191Z,9.26
2023-01-17T18:00:10.147Z,9.22
2023-01-17T18:02:11.048Z,9.17
2023-01-17T18:04:10.277Z,9.06
2023-01-17T18:06:11.625Z,9.03
2023-01-17T18:08:11.840Z,8.99
2023-01-17T18:10:13.321Z,8.89
2023-01-17T18:12:11.546Z,8.86
2023-01-17T18:14:12.516Z,8.89
2023-01-17T18:16:15.523Z,8.81
2023-01-17T18:18:13.931Z,8.82
2023-01-17T18:20:12.542Z,8.81
2023-01-17T18:22:11.685Z,8.72
2023-01-17T18:24:12.010Z,8.63
2023-01-17T18:26:18.180Z,8.67
2023-01-17T18:28:16.701Z,8.73
2023-01-17T18:30:15.411Z,8.66
2023-01-17T18:32:14.931Z,8.56
2023-01-17T18:34:15.941Z,8.50
2023-01-17T18:36:14.705Z,8.49
2023-01-17T18:38:13.295Z,8.49
2023-01-17T18:40:13.451Z,8.43
2023-01-17T18:42:12.602Z,8.52
2023-01-17T18:44:11.582Z,8.44
2023-01-17T18:46:11.327Z,8.44
2023-01-17T18:48:12.659Z,8.53
2023-01-17T18:50:11.880Z,8.52
2023-01-17T18:52:10.485Z,8.49
2023-01-17T18:54:09.031Z,8.56
2023-01-17T18:56:09.626Z,8.61
2023-01-17T18:58:09.334Z,8.57
2023-01-17T19:00:11.436Z,8.47
2023-01-17T19:02:10.909Z,8.53
2023-01-17T19:04:11.838Z,8.57
2023-01-17T19:06:12.874Z,8.53
2023-01-17T19:08:11.379Z,8.58
2023-01-17T19:10:13.156Z,8.61
2023-01-17T19:12:11.579Z,8.59
2023-01-17T19:14:11.890Z,8.60
2023-01-17T19:16:14.480Z,8.57
2023-01-17T19:18:13.002Z,8.64
2023-01-17T19:20:17.202Z,8.66
2023-01-17T19:22:15.543Z,8.76
2023-01-17T19:24:14.491Z,8.84
2023-01-17T19:26:16.619Z,8.76
2023-01-17T19:28:15.004Z,8.70
2023-01-17T19:30:14.127Z,8.74
2023-01-17T19:32:12.541Z,8.74
2023-01-17T19:34:11.156Z,8.82
2023-01-17T19:36:16.941Z,8.82
2023-01-17T19:38:15.642Z,8.76
2023-01-17T19:40:14.596Z,8.90
2023-01-17T19:42:15.681Z,9.02
2023-01-17T19:44:15.584Z,9.08
2023-01-17T19:46:13.781Z,9.15
2023-01-17T19:48:14.545Z,9.27
2023-01-17T19:50:14.933Z,9.52
2023-01-17T19:52:14.788Z,9.85
2023-01-17T19:54:15.174Z,10.73
2023-01-17T19:56:15.658Z,10.98
2023-01-17T19:58:14.492Z,11.21
2023-01-17T20:00:14.911Z,11.20
2023-01-17T20:02:15.184Z,10.99
2023-01-17T20:04:14.255Z,10.90
2023-01-17T20:06:13.956Z,10.99
2023-01-17T20:08:14.378Z,10.90
2023-01-17T20:10:12.881Z,10.84
2023-01-17T20:12:12.335Z,10.76
2023-01-17T20:14:14.780Z,10.68
2023-01-17T20:16:15.484Z,10.57
2023-01-17T20:18:14.045Z,10.49
2023-01-17T20:20:13.515Z,10.56
2023-01-17T20:22:11.722Z,10.57
2023-01-17T20:24:13.709Z,10.47
2023-01-17T20:26:12.699Z,10.62
2023-01-17T20:28:10.966Z,11.03
2023-01-17T20:30:20.284Z,11.43
2023-01-17T20:32:18.718Z,11.83
2023-01-17T20:34:19.732Z,11.75
2023-01-17T20:36:19.555Z,11.65
2023-01-17T20:38:17.987Z,11.67
2023-01-17T20:40:18.471Z,11.72
2023-01-17T20:42:16.709Z,11.93
2023-01-17T20:44:16.080Z,12.07
2023-01-17T20:46:14.934Z,12.15
2023-01-17T20:48:13.391Z,12.34
2023-01-17T20:50:12.058Z,12.38
2023-01-17T20:52:10.834Z,12.54
2023-01-17T20:54:13.124Z,12.68
2023-01-17T20:56:15.015Z,12.73
2023-01-17T20:58:13.378Z,12.64
2023-01-17T21:00:14.612Z,12.64
2023-01-17T21:02:13.241Z,12.59
2023-01-17T21:04:13.055Z,12.58
2023-01-17T21:06:13.736Z,12.63
2023-01-17T21:08:17.781Z,12.72
2023-01-17T21:10:17.716Z,12.66
2023-01-17T21:12:17.353Z,12.58
2023-01-17T21:14:16.050Z,12.42
2023-01-17T21:16:16.418Z,12.50
2023-01-17T21:18:14.825Z,12.66
2023-01-17T21:20:15.034Z,12.56
2023-01-17T21:22:16.708Z,12.44
2023-01-17T21:24:18.930Z,12.45
2023-01-17T21:26:18.671Z,12.47
2023-01-17T21:28:18.696Z,12.41
2023-01-17T21:30:17.305Z,12.49
2023-01-17T21:32:17.396Z,12.51
2023-01-17T21:34:15.702Z,12.71
2023-01-17T21:36:14.796Z,12.77
2023-01-17T21:38:13.943Z,12.86
2023-01-17T21:40:14.780Z,12.87
2023-01-17T21:42:12.983Z,12.88
2023-01-17T21:44:15.845Z,12.82
2023-01-17T21:46:14.260Z,12.66
2023-01-17T21:48:13.409Z,12.69
2023-01-17T21:50:22.194Z,12.61
2023-01-17T21:52:26.695Z,12.56
2023-01-17T21:54:40.705Z,12.57
2023-01-17T21:56:56.689Z,12.69
2023-01-17T21:58:56.982Z,12.72
2023-01-17T22:01:07.807Z,12.65
2023-01-17T22:03:06.094Z,12.68
2023-01-17T22:05:04.589Z,12.65
2023-01-17T22:07:03.274Z,12.56
2023-01-17T22:09:01.650Z,12.60
2023-01-17T22:11:03.991Z,12.57
2023-01-17T22:13:02.435Z,12.44
2023-01-17T22:15:00.618Z,12.49
2023-01-17T22:17:00.282Z,12.59
2023-01-17T22:18:59.176Z,12.59
2023-01-17T22:20:57.727Z,12.52
2023-01-17T22:22:56.277Z,12.49
2023-01-17T22:24:54.662Z,12.52
2023-01-17T22:26:52.883Z,12.65
2023-01-17T22:28:51.194Z,12.60
2023-01-17T22:30:49.556Z,12.42
2023-01-17T22:32:49.397Z,12.50
2023-01-17T22:34:47.454Z,12.78
2023-01-17T22:36:46.135Z,12.91
2023-01-17T22:38:44.806Z,13.03
2023-01-17T22:40:43.041Z,13.10
2023-01-17T22:42:41.281Z,13.22
2023-01-17T22:44:39.497Z,13.16
2023-01-17T22:46:38.616Z,13.11
2023-01-17T22:48:40.401Z,13.01
2023-01-17T22:50:38.687Z,12.97
2023-01-17T22:52:36.963Z,12.89
2023-01-17T22:54:35.207Z,12.85
2023-01-17T22:56:34.742Z,12.86
2023-01-17T22:58:37.239Z,12.74
2023-01-17T23:00:35.829Z,12.67
2023-01-17T23:02:34.023Z,12.56
2023-01-17T23:04:33.558Z,12.42
2023-01-17T23:06:33.623Z,12.37
2023-01-17T23:08:32.147Z,12.58
2023-01-17T23:10:47.870Z,12.70
2023-01-17T23:12:47.432Z,12.72
2023-01-17T23:15:03.141Z,12.74
2023-01-17T23:17:20.608Z,12.72
2023-01-17T23:19:24.742Z,12.64
2023-01-17T23:21:44.498Z,12.61
2023-01-17T23:23:42.666Z,12.50
2023-01-17T23:25:40.750Z,12.56
2023-01-17T23:27:58.224Z,12.60
2023-01-17T23:29:55.474Z,12.59
2023-01-17T23:31:53.661Z,12.60
2023-01-17T23:33:51.915Z,12.52
2023-01-17T23:35:50.160Z,12.36
2023-01-17T23:38:07.464Z,12.30
2023-01-17T23:40:06.672Z,12.16
2023-01-17T23:42:22.682Z,12.22
2023-01-17T23:44:20.907Z,12.36
2023-01-17T23:46:19.096Z,12.34
2023-01-17T23:48:17.525Z,12.42
2023-01-17T23:50:15.917Z,12.40
2023-01-17T23:52:14.246Z,12.45
2023-01-17T23:54:13.997Z,12.47
2023-01-17T23:56:15.709Z,12.43
2023-01-17T23:58:14.091Z,12.30
